createdAt,value
2022-10-18T00:00:51.118Z,35.50
2022-10-18T00:03:36.466Z,41.00
2022-10-18T00:06:04.778Z,44.00
2022-10-18T00:08:32.745Z,52.67
2022-10-18T00:11:00.460Z,53.00
2022-10-18T00:13:28.477Z,44.33
2022-10-18T00:15:57.878Z,49.00
2022-10-18T00:18:26.260Z,44.00
2022-10-18T00:21:01.914Z,46.00
2022-10-18T00:23:30.457Z,41.67
2022-10-18T00:25:59.178Z,42.00
2022-10-18T00:28:26.905Z,42.67
2022-10-18T00:30:54.812Z,44.00
2022-10-18T00:33:22.844Z,49.50
2022-10-18T00:35:50.488Z,44.33
2022-10-18T00:38:18.408Z,44.00
2022-10-18T00:40:46.164Z,46.67
2022-10-18T00:43:16.417Z,40.00
2022-10-18T00:45:44.366Z,39.00
2022-10-18T00:48:13.938Z,41.00
2022-10-18T00:50:42.957Z,40.00
2022-10-18T00:53:13.384Z,42.50
2022-10-18T00:55:41.262Z,41.50
2022-10-18T00:58:09.938Z,41.00
2022-10-18T01:00:40.978Z,41.00
2022-10-18T01:03:09.159Z,48.00
2022-10-18T01:05:39.075Z,37.67
2022-10-18T01:08:28.658Z,43.67
2022-10-18T01:11:05.627Z,42.00
2022-10-18T01:13:33.402Z,37.00
2022-10-18T01:16:19.593Z,44.50
2022-10-18T01:18:58.602Z,39.00
2022-10-18T01:21:32.935Z,39.00
2022-10-18T01:24:00.621Z,44.00
2022-10-18T01:26:37.282Z,41.00
2022-10-18T01:31:34.954Z,39.00
2022-10-18T01:34:05.378Z,44.33
2022-10-18T01:36:35.390Z,36.33
2022-10-18T01:39:06.971Z,45.00
2022-10-18T01:41:36.253Z,42.00
2022-10-18T01:44:06.775Z,38.50
2022-10-18T01:46:35.363Z,48.00
2022-10-18T01:49:04.711Z,41.50
2022-10-18T01:51:33.448Z,47.00
2022-10-18T01:54:01.324Z,47.00
2022-10-18T01:56:35.435Z,39.00
2022-10-18T01:59:09.854Z,36.67
2022-10-18T02:01:53.695Z,34.00
2022-10-18T02:04:24.738Z,37.00
2022-10-18T02:06:57.827Z,41.00
2022-10-18T02:09:33.373Z,40.50
2022-10-18T02:12:02.223Z,40.00
2022-10-18T02:14:30.944Z,44.00
2022-10-18T02:17:00.968Z,40.33
2022-10-18T02:19:31.504Z,35.67
2022-10-18T02:22:00.402Z,33.33
2022-10-18T02:24:36.748Z,41.50
2022-10-18T02:27:05.236Z,33.50
2022-10-18T02:29:33.608Z,38.00
2022-10-18T02:32:06.294Z,39.00
2022-10-18T02:34:38.258Z,43.00
2022-10-18T02:37:06.125Z,36.00
2022-10-18T02:39:37.779Z,42.33
2022-10-18T02:42:07.033Z,38.00
2022-10-18T02:44:35.849Z,40.00
2022-10-18T02:47:04.949Z,38.00
2022-10-18T02:49:32.836Z,40.00
2022-10-18T02:52:00.780Z,36.00
2022-10-18T02:54:28.969Z,31.00
2022-10-18T02:56:56.847Z,42.00
2022-10-18T02:59:24.612Z,39.00
2022-10-18T03:01:52.403Z,43.00
2022-10-18T03:04:20.292Z,38.50
2022-10-18T03:06:48.205Z,37.00
2022-10-18T03:09:15.967Z,43.00
2022-10-18T03:11:43.848Z,40.00
2022-10-18T03:14:11.914Z,36.00
2022-10-18T03:16:40.086Z,41.00
2022-10-18T03:19:08.066Z,33.00
2022-10-18T03:21:35.919Z,39.50
2022-10-18T03:24:04.125Z,43.50
2022-10-18T03:26:32.162Z,38.00
2022-10-18T03:29:00.142Z,36.50
2022-10-18T03:31:28.264Z,40.00
2022-10-18T03:33:56.176Z,40.00
2022-10-18T03:36:23.940Z,40.00
2022-10-18T03:38:51.565Z,43.50
2022-10-18T03:41:20.900Z,45.67
2022-10-18T03:43:48.729Z,39.50
2022-10-18T03:46:16.854Z,37.00
2022-10-18T03:48:44.700Z,42.00
2022-10-18T03:51:12.627Z,33.00
2022-10-18T03:53:40.650Z,37.00
2022-10-18T03:56:08.510Z,36.00
2022-10-18T03:58:36.383Z,46.67
2022-10-18T04:01:04.465Z,38.00
2022-10-18T04:03:32.314Z,41.50
2022-10-18T04:06:00.943Z,39.00
2022-10-18T04:08:29.182Z,37.50
2022-10-18T04:10:57.049Z,34.00
2022-10-18T04:13:25.041Z,37.50
2022-10-18T04:15:52.980Z,37.00
2022-10-18T04:18:20.957Z,34.00
2022-10-18T04:20:49.020Z,41.00
2022-10-18T04:23:16.999Z,32.00
2022-10-18T04:25:44.667Z,38.00
2022-10-18T04:28:12.277Z,34.00
2022-10-18T04:30:40.198Z,33.00
2022-10-18T04:33:07.972Z,36.00
2022-10-18T04:35:35.825Z,35.00
2022-10-18T04:38:03.684Z,45.00
2022-10-18T04:40:31.543Z,39.00
2022-10-18T04:42:59.318Z,38.00
2022-10-18T04:45:27.181Z,41.50
2022-10-18T04:47:54.834Z,49.00
2022-10-18T04:50:22.468Z,43.00
2022-10-18T04:55:23.696Z,51.00
2022-10-18T04:57:52.659Z,41.50
2022-10-18T05:00:20.937Z,45.00
2022-10-18T05:02:48.692Z,42.50
2022-10-18T05:05:16.418Z,40.00
2022-10-18T05:07:44.150Z,45.00
2022-10-18T05:10:11.784Z,42.00
2022-10-18T05:12:39.512Z,41.00
2022-10-18T05:15:08.215Z,46.50
2022-10-18T05:17:36.222Z,44.00
2022-10-18T05:20:04.785Z,48.00
2022-10-18T05:22:32.989Z,46.00
2022-10-18T05:25:00.954Z,41.00
2022-10-18T05:27:29.546Z,40.33
2022-10-18T05:29:59.974Z,36.00
2022-10-18T05:32:31.210Z,33.50
2022-10-18T05:34:59.885Z,37.50
2022-10-18T05:37:28.502Z,37.00
2022-10-18T05:39:56.430Z,44.00
2022-10-18T05:42:24.170Z,43.00
2022-10-18T05:44:52.165Z,42.50
2022-10-18T05:47:20.026Z,34.00
2022-10-18T05:49:47.898Z,37.50
2022-10-18T05:52:15.756Z,46.67
2022-10-18T05:54:43.638Z,42.00
2022-10-18T05:57:11.493Z,42.00
2022-10-18T05:59:39.466Z,45.00
2022-10-18T06:02:07.284Z,41.00
2022-10-18T06:04:35.323Z,33.00
2022-10-18T06:07:03.401Z,47.00
2022-10-18T06:09:31.246Z,40.50
2022-10-18T06:11:59.211Z,47.50
2022-10-18T06:14:26.978Z,46.33
2022-10-18T06:16:56.895Z,53.00
2022-10-18T06:19:24.869Z,44.00
2022-10-18T06:21:53.130Z,39.00
2022-10-18T06:24:21.925Z,38.50
2022-10-18T06:26:50.084Z,42.50
2022-10-18T06:29:17.787Z,41.00
2022-10-18T06:31:45.732Z,42.50
2022-10-18T06:34:13.392Z,46.50
2022-10-18T06:36:42.174Z,41.50
2022-10-18T06:39:10.542Z,41.00
2022-10-18T06:41:38.416Z,42.00
2022-10-18T06:44:19.810Z,38.50
2022-10-18T06:46:49.001Z,45.50
2022-10-18T06:49:19.089Z,41.00
2022-10-18T06:51:47.298Z,54.00
2022-10-18T06:54:19.130Z,52.33
2022-10-18T06:56:47.242Z,49.50
2022-10-18T06:59:15.489Z,58.50
2022-10-18T07:01:44.069Z,52.00
2022-10-18T07:04:12.176Z,49.00
2022-10-18T07:06:40.131Z,52.67
2022-10-18T07:09:08.570Z,57.50
2022-10-18T07:11:39.971Z,58.00
2022-10-18T07:14:08.855Z,56.00
2022-10-18T07:16:38.600Z,58.50
2022-10-18T07:19:06.865Z,59.00
2022-10-18T07:21:35.129Z,53.00
2022-10-18T07:24:04.109Z,54.67
2022-10-18T07:26:33.517Z,63.00
2022-10-18T07:29:09.697Z,67.33
2022-10-18T07:31:38.852Z,56.50
2022-10-18T07:34:08.071Z,54.50
2022-10-18T07:36:36.143Z,61.50
2022-10-18T07:39:04.224Z,54.00
2022-10-18T07:41:34.080Z,56.67
2022-10-18T07:44:03.269Z,55.00
2022-10-18T07:46:31.510Z,57.50
2022-10-18T07:48:59.786Z,57.00
2022-10-18T07:51:28.181Z,60.00
2022-10-18T07:53:56.136Z,53.00
2022-10-18T07:56:24.411Z,53.00
2022-10-18T07:58:53.605Z,55.00
2022-10-18T08:01:22.752Z,52.67
2022-10-18T08:03:51.396Z,54.67
2022-10-18T08:06:20.786Z,52.00
2022-10-18T08:08:49.067Z,53.00
2022-10-18T08:11:18.260Z,52.00
2022-10-18T08:13:46.653Z,57.50
2022-10-18T08:16:16.660Z,64.67
2022-10-18T08:18:44.936Z,61.00
2022-10-18T08:21:14.254Z,58.00
2022-10-18T08:23:42.924Z,57.00
2022-10-18T08:26:13.119Z,62.00
2022-10-18T08:28:46.051Z,53.00
2022-10-18T08:31:22.043Z,52.50
2022-10-18T08:33:50.062Z,46.33
2022-10-18T08:36:18.030Z,49.50
2022-10-18T08:38:46.600Z,46.50
2022-10-18T08:41:23.856Z,56.00
2022-10-18T08:44:07.396Z,52.00
2022-10-18T08:46:37.540Z,50.33
2022-10-18T08:49:06.962Z,50.00
2022-10-18T08:51:43.949Z,46.00
2022-10-18T08:54:12.028Z,53.33
2022-10-18T08:56:42.024Z,49.00
2022-10-18T08:59:11.427Z,48.67
2022-10-18T09:01:39.409Z,51.00
2022-10-18T09:04:10.847Z,53.00
2022-10-18T09:06:43.736Z,48.50
2022-10-18T09:09:11.607Z,52.50
2022-10-18T09:12:03.023Z,59.00
2022-10-18T09:14:49.420Z,54.00
2022-10-18T09:17:20.362Z,52.00
2022-10-18T09:19:55.902Z,47.00
2022-10-18T09:22:39.337Z,49.00
2022-10-18T09:25:21.953Z,45.00
2022-10-18T09:27:53.110Z,44.50
2022-10-18T09:30:20.961Z,46.33
2022-10-18T09:32:57.128Z,44.50
2022-10-18T09:35:28.533Z,44.00
2022-10-18T09:38:02.601Z,49.00
2022-10-18T09:40:33.948Z,40.00
2022-10-18T09:43:05.623Z,42.00
2022-10-18T09:45:39.789Z,38.50
2022-10-18T09:48:13.717Z,43.00
2022-10-18T09:50:45.169Z,41.00
2022-10-18T09:53:18.466Z,46.00
2022-10-18T09:55:55.652Z,39.50
2022-10-18T09:58:24.567Z,40.00
2022-10-18T10:00:53.215Z,37.00
2022-10-18T10:03:21.086Z,34.50
2022-10-18T10:06:01.552Z,36.33
2022-10-18T10:08:34.188Z,34.00
2022-10-18T10:11:02.098Z,34.00
2022-10-18T10:13:30.064Z,34.00
2022-10-18T10:16:02.233Z,34.00
2022-10-18T10:18:32.202Z,28.00
2022-10-18T10:21:01.982Z,30.67
2022-10-18T10:23:32.901Z,32.00
2022-10-18T10:26:20.937Z,27.00
2022-10-18T10:28:49.380Z,32.00
2022-10-18T10:31:19.335Z,35.50
2022-10-18T10:33:47.728Z,35.33
2022-10-18T10:36:19.780Z,32.50
2022-10-18T10:39:02.303Z,40.00
2022-10-18T10:41:33.755Z,29.00
2022-10-18T10:44:02.938Z,30.50
2022-10-18T10:46:35.117Z,34.00
2022-10-18T10:49:35.002Z,31.00
2022-10-18T10:52:08.902Z,30.00
2022-10-18T10:54:50.380Z,28.00
2022-10-18T10:57:23.015Z,31.00
2022-10-18T10:59:52.819Z,31.00
2022-10-18T11:02:23.423Z,27.00
2022-10-18T11:04:52.581Z,26.00
2022-10-18T11:07:20.534Z,26.00
2022-10-18T11:09:53.455Z,32.00
2022-10-18T11:12:25.291Z,26.50
2022-10-18T11:14:59.843Z,28.50
2022-10-18T11:17:48.145Z,27.00
2022-10-18T11:20:28.901Z,27.00
2022-10-18T11:22:56.656Z,32.33
2022-10-18T11:25:28.663Z,24.00
2022-10-18T11:28:04.579Z,28.00
2022-10-18T11:30:32.544Z,21.00
2022-10-18T11:33:06.811Z,26.50
2022-10-18T11:35:50.088Z,22.00
2022-10-18T11:38:33.111Z,23.00
2022-10-18T11:41:26.476Z,29.50
2022-10-18T11:44:03.977Z,26.50
2022-10-18T11:46:38.289Z,27.00
2022-10-18T11:49:28.377Z,29.00
2022-10-18T11:52:08.954Z,19.50
2022-10-18T11:54:38.243Z,27.67
2022-10-18T11:57:09.179Z,25.00
2022-10-18T11:59:52.312Z,24.00
2022-10-18T12:02:20.332Z,23.50
2022-10-18T12:05:05.918Z,24.00
2022-10-18T12:07:44.071Z,19.00
2022-10-18T12:10:26.152Z,26.00
2022-10-18T12:13:07.550Z,19.00
2022-10-18T12:15:37.441Z,26.00
2022-10-18T12:18:15.058Z,25.00
2022-10-18T12:20:51.453Z,23.50
2022-10-18T12:23:42.542Z,20.50
2022-10-18T12:26:11.349Z,23.00
2022-10-18T12:28:57.762Z,17.00
2022-10-18T12:31:40.861Z,25.00
2022-10-18T12:34:24.868Z,25.00
2022-10-18T12:40:14.598Z,28.00
2022-10-18T12:42:46.659Z,22.00
2022-10-18T12:45:25.298Z,26.50
2022-10-18T12:47:54.378Z,23.00
2022-10-18T12:50:25.249Z,20.00
2022-10-18T12:53:13.381Z,26.00
2022-10-18T12:58:15.853Z,24.00
2022-10-18T13:00:43.619Z,20.00
2022-10-18T13:03:16.724Z,22.00
2022-10-18T13:05:55.901Z,20.00
2022-10-18T13:08:40.753Z,23.00
2022-10-18T13:11:08.588Z,21.00
2022-10-18T13:13:40.103Z,18.33
2022-10-18T13:16:27.537Z,17.33
2022-10-18T13:18:58.476Z,18.00
2022-10-18T13:21:40.280Z,16.00
2022-10-18T13:24:18.290Z,17.00
2022-10-18T13:26:51.065Z,16.00
2022-10-18T13:29:28.459Z,17.00
2022-10-18T13:34:44.067Z,18.00
2022-10-18T13:37:11.927Z,17.00
2022-10-18T13:39:40.200Z,18.00
2022-10-18T13:42:26.597Z,22.00
2022-10-18T13:44:54.577Z,19.00
2022-10-18T13:47:42.706Z,18.00
2022-10-18T13:50:36.903Z,17.50
2022-10-18T13:53:24.888Z,19.00
2022-10-18T13:56:31.068Z,14.00
2022-10-18T13:59:15.803Z,15.00
2022-10-18T14:01:50.696Z,16.00
2022-10-18T14:04:39.554Z,18.00
2022-10-18T14:07:09.068Z,18.00
2022-10-18T14:09:54.267Z,16.00
2022-10-18T14:12:31.050Z,22.00
2022-10-18T14:15:19.145Z,20.00
2022-10-18T14:17:49.646Z,16.50
2022-10-18T14:20:29.846Z,17.00
2022-10-18T14:23:13.297Z,17.00
2022-10-18T14:25:41.091Z,18.00
2022-10-18T14:28:15.808Z,20.50
2022-10-18T14:31:03.492Z,18.00
2022-10-18T14:33:36.434Z,17.00
2022-10-18T14:36:10.263Z,16.50
2022-10-18T14:38:59.242Z,17.00
2022-10-18T14:41:28.316Z,16.00
2022-10-18T14:44:14.329Z,19.00
2022-10-18T14:46:49.775Z,19.00
2022-10-18T14:49:19.522Z,19.00
2022-10-18T14:51:50.314Z,19.00
2022-10-18T14:54:44.850Z,28.00
2022-10-18T14:57:29.923Z,16.00
2022-10-18T15:00:02.049Z,19.00
2022-10-18T15:02:32.085Z,16.00
2022-10-18T15:05:00.406Z,15.00
2022-10-18T15:07:31.432Z,23.00
2022-10-18T15:10:01.272Z,21.00
2022-10-18T15:12:36.822Z,22.00
2022-10-18T15:15:33.174Z,23.00
2022-10-18T15:18:01.853Z,28.00
2022-10-18T15:20:34.230Z,20.00
2022-10-18T15:23:20.741Z,23.33
2022-10-18T15:25:48.816Z,27.00
2022-10-18T15:28:29.764Z,18.00
2022-10-18T15:31:02.088Z,21.00
2022-10-18T15:33:36.951Z,23.00
2022-10-18T15:36:26.255Z,22.00
2022-10-18T15:38:54.425Z,25.00
2022-10-18T15:41:39.539Z,23.50
2022-10-18T15:44:13.146Z,29.00
2022-10-18T15:46:41.928Z,28.50
2022-10-18T15:49:24.839Z,26.00
2022-10-18T15:52:15.930Z,27.50
2022-10-18T15:54:43.616Z,26.00
2022-10-18T15:57:11.274Z,30.00
2022-10-18T16:00:00.581Z,26.00
2022-10-18T16:02:28.664Z,22.00
2022-10-18T16:04:58.469Z,25.00
2022-10-18T16:07:26.094Z,30.50
2022-10-18T16:09:53.720Z,29.00
2022-10-18T16:12:21.624Z,30.00
2022-10-18T16:14:49.355Z,34.00
2022-10-18T16:17:17.385Z,32.00
2022-10-18T16:19:45.140Z,30.00
2022-10-18T16:24:41.645Z,32.00
2022-10-18T16:27:10.120Z,33.00
2022-10-18T16:29:37.722Z,35.00
2022-10-18T16:32:05.416Z,31.00
2022-10-18T16:34:33.235Z,35.00
2022-10-18T16:37:01.005Z,41.00
2022-10-18T16:39:32.109Z,43.00
2022-10-18T16:41:59.986Z,43.00
2022-10-18T16:44:27.753Z,47.50
2022-10-18T16:46:56.302Z,33.50
2022-10-18T16:49:25.958Z,42.50
2022-10-18T16:51:54.192Z,36.00
2022-10-18T16:54:22.185Z,38.00
2022-10-18T16:56:50.325Z,37.50
2022-10-18T16:59:26.470Z,35.00
2022-10-18T17:01:54.265Z,43.50
2022-10-18T17:04:22.127Z,37.00
2022-10-18T17:06:49.931Z,41.50
2022-10-18T17:09:17.865Z,38.00
2022-10-18T17:11:45.659Z,41.00
2022-10-18T17:14:13.525Z,43.33
2022-10-18T17:16:43.602Z,40.00
2022-10-18T17:19:13.456Z,47.50
2022-10-18T17:21:41.281Z,41.67
2022-10-18T17:24:09.496Z,41.00
2022-10-18T17:26:37.235Z,35.00
2022-10-18T17:29:06.726Z,42.33
2022-10-18T17:31:35.818Z,38.00
2022-10-18T17:34:03.946Z,42.67
2022-10-18T17:36:32.435Z,39.67
2022-10-18T17:39:00.366Z,43.00
2022-10-18T17:41:28.171Z,43.50
2022-10-18T17:43:55.826Z,49.00
2022-10-18T17:46:23.981Z,49.00
2022-10-18T17:48:51.846Z,56.50
2022-10-18T17:51:19.488Z,53.50
2022-10-18T17:53:47.275Z,46.00
2022-10-18T17:56:15.552Z,60.00
2022-10-18T17:58:43.833Z,54.00
2022-10-18T18:01:15.783Z,59.00
2022-10-18T18:03:44.105Z,55.00
2022-10-18T18:06:22.789Z,50.00
2022-10-18T18:08:50.729Z,47.33
2022-10-18T18:11:18.804Z,54.33
2022-10-18T18:13:46.618Z,39.50
2022-10-18T18:16:19.446Z,43.00
2022-10-18T18:18:48.778Z,50.00
2022-10-18T18:21:16.648Z,42.00
2022-10-18T18:23:44.723Z,46.00
2022-10-18T18:26:15.074Z,49.00
2022-10-18T18:28:43.022Z,39.00
2022-10-18T18:31:14.214Z,49.00
2022-10-18T18:33:42.350Z,40.67
2022-10-18T18:36:10.812Z,51.00
2022-10-18T18:38:39.255Z,49.00
2022-10-18T18:41:08.418Z,47.33
2022-10-18T18:43:36.917Z,44.00
2022-10-18T18:46:04.937Z,53.00
2022-10-18T18:48:33.670Z,34.50
2022-10-18T18:51:05.913Z,45.00
2022-10-18T18:53:33.965Z,43.00
2022-10-18T18:56:02.829Z,43.50
2022-10-18T18:58:31.132Z,40.00
2022-10-18T19:00:59.043Z,43.50
2022-10-18T19:03:26.971Z,47.00
2022-10-18T19:06:02.125Z,51.00
2022-10-18T19:08:29.824Z,48.00
2022-10-18T19:10:57.544Z,46.50
2022-10-18T19:13:25.400Z,51.00
2022-10-18T19:16:06.494Z,50.00
2022-10-18T19:18:35.441Z,45.00
2022-10-18T19:21:04.363Z,48.00
2022-10-18T19:23:32.744Z,47.33
2022-10-18T19:26:12.828Z,51.50
2022-10-18T19:28:43.474Z,50.00
2022-10-18T19:31:11.395Z,55.00
2022-10-18T19:33:48.411Z,53.00
2022-10-18T19:36:23.716Z,47.50
2022-10-18T19:38:51.570Z,54.00
2022-10-18T19:41:19.510Z,54.00
2022-10-18T19:43:47.421Z,52.50
2022-10-18T19:46:15.185Z,45.00
2022-10-18T19:48:49.722Z,47.50
2022-10-18T19:51:21.015Z,52.50
2022-10-18T19:53:53.246Z,44.33
2022-10-18T19:56:23.972Z,52.50
2022-10-18T19:58:52.277Z,47.67
2022-10-18T20:01:21.798Z,41.50
2022-10-18T20:03:49.920Z,40.00
2022-10-18T20:06:18.274Z,50.50
2022-10-18T20:11:16.700Z,43.00
2022-10-18T20:13:45.699Z,52.50
2022-10-18T20:16:14.899Z,51.00
2022-10-18T20:18:45.830Z,45.50
2022-10-18T20:21:15.151Z,47.50
2022-10-18T20:23:43.871Z,52.00
2022-10-18T20:26:20.418Z,43.33
2022-10-18T20:28:56.083Z,48.00
2022-10-18T20:31:25.747Z,51.00
2022-10-18T20:33:57.841Z,49.00
2022-10-18T20:36:26.426Z,45.00
2022-10-18T20:38:55.155Z,52.00
2022-10-18T20:41:25.098Z,43.00
2022-10-18T20:43:57.465Z,50.00
2022-10-18T20:46:25.746Z,48.67
2022-10-18T20:48:54.143Z,55.00
2022-10-18T20:51:22.526Z,50.33
2022-10-18T20:53:50.829Z,45.00
2022-10-18T20:56:22.953Z,51.00
2022-10-18T20:58:51.405Z,35.50
2022-10-18T21:01:27.345Z,45.00
2022-10-18T21:03:56.694Z,52.00
2022-10-18T21:06:25.577Z,50.00
2022-10-18T21:08:54.404Z,40.00
2022-10-18T21:11:22.847Z,50.00
2022-10-18T21:13:54.642Z,47.33
2022-10-18T21:16:22.673Z,58.33
2022-10-18T21:18:50.548Z,45.00
2022-10-18T21:21:19.700Z,48.67
2022-10-18T21:23:47.716Z,55.00
2022-10-18T21:26:19.689Z,48.50
2022-10-18T21:28:47.518Z,50.33
2022-10-18T21:31:17.384Z,52.00
2022-10-18T21:33:45.816Z,41.50
2022-10-18T21:36:14.416Z,39.00
2022-10-18T21:38:44.630Z,40.00
2022-10-18T21:41:13.527Z,42.00
2022-10-18T21:43:42.680Z,38.50
2022-10-18T21:46:11.098Z,31.33
2022-10-18T21:48:39.364Z,35.00
2022-10-18T21:51:07.763Z,45.50
2022-10-18T21:53:36.021Z,44.00
2022-10-18T21:56:05.148Z,46.67
2022-10-18T21:58:33.031Z,41.50
2022-10-18T22:01:01.045Z,43.50
2022-10-18T22:03:28.814Z,37.50
2022-10-18T22:06:03.845Z,42.00
2022-10-18T22:08:32.044Z,47.50
2022-10-18T22:11:00.370Z,32.00
2022-10-18T22:13:28.654Z,37.00
2022-10-18T22:15:56.664Z,40.33
2022-10-18T22:18:24.308Z,47.67
2022-10-18T22:20:59.830Z,39.00
2022-10-18T22:23:31.428Z,42.50
2022-10-18T22:26:03.881Z,40.00
2022-10-18T22:28:31.679Z,47.50
2022-10-18T22:30:59.534Z,44.00
2022-10-18T22:33:27.195Z,43.33
2022-10-18T22:35:55.065Z,40.00
2022-10-18T22:38:22.811Z,40.00
2022-10-18T22:40:50.668Z,35.00
2022-10-18T22:43:18.332Z,41.50
2022-10-18T22:45:46.021Z,37.50
2022-10-18T22:48:13.785Z,34.00
2022-10-18T22:50:41.549Z,33.00
2022-10-18T22:53:09.201Z,34.50
2022-10-18T22:55:36.976Z,29.00
2022-10-18T22:58:04.696Z,34.50
2022-10-18T23:00:32.443Z,37.00
2022-10-18T23:03:00.215Z,40.00
2022-10-18T23:05:27.854Z,37.00
2022-10-18T23:07:55.607Z,30.00
2022-10-18T23:10:23.360Z,34.50
2022-10-18T23:12:50.970Z,30.00
2022-10-18T23:15:18.786Z,31.00
2022-10-18T23:17:46.933Z,41.00
2022-10-18T23:20:15.049Z,36.00
2022-10-18T23:22:42.902Z,34.50
2022-10-18T23:25:10.617Z,38.00
2022-10-18T23:27:38.349Z,37.00
2022-10-18T23:30:06.636Z,35.50
2022-10-18T23:32:35.296Z,41.00
2022-10-18T23:35:03.520Z,43.00
2022-10-18T23:37:31.724Z,39.00
2022-10-18T23:39:59.714Z,35.00
2022-10-18T23:42:27.991Z,32.00
2022-10-18T23:44:55.746Z,33.00
2022-10-18T23:47:23.624Z,35.50
2022-10-18T23:49:51.484Z,34.00
2022-10-18T23:52:19.077Z,37.33
2022-10-18T23:54:47.126Z,40.00
2022-10-18T23:57:14.986Z,33.00
2022-10-18T23:59:42.852Z,33.50
